TVF72VT LDSP-LFPO
Flight info
| Callsign | TVF72VT |
|---|---|
| Flight time | N/A |
| Altitude | 34000 |
| Route | ZDA1W ZDA DCT PEVAL DCT BABAG DCT SAFFA DCT ELMUR DCT RIPUS DCT DITON DCT HOC DCT MOROK DCT PENDU DCT JAVVU DCT DJL DJL9E |
| Aircraft | B38M/M-SDE1FGHILORVWXY/HB1 |
Departure
| Time | 2026-04-30 18:00 |
|---|---|
| Airport | Split Saint Jerome Airport (LDSP) |
Arrival
| Time | N/A |
|---|---|
| Airport | Paris-Orly Airport (LFPO) |
| Time | Latitude | Longitude | Altitude | Speed | Heading |
|---|---|---|---|---|---|
| 2026-04-30 17:39 | 43.53759 | 16.29935 | 70 ft | 0 kts | 114° |
| 2026-04-30 17:43 | 43.53759 | 16.29933 | 70 ft | 1 kts | 114° |
| 2026-04-30 17:44 | 43.53795 | 16.29879 | 61 ft | 3 kts | 177° |
| 2026-04-30 17:44 | 43.53811 | 16.29888 | 65 ft | 1 kts | 232° |
| 2026-04-30 17:48 | 43.53789 | 16.29848 | 67 ft | 5 kts | 232° |
| 2026-04-30 17:48 | 43.53727 | 16.29736 | 70 ft | 8 kts | 233° |
| 2026-04-30 17:49 | 43.53669 | 16.29606 | 67 ft | 0 kts | 279° |
| 2026-04-30 17:56 | 43.53669 | 16.29604 | 70 ft | 1 kts | 283° |
| 2026-04-30 17:57 | 43.53695 | 16.29495 | 85 ft | 0 kts | 262° |
| 2026-04-30 17:58 | 43.53419 | 16.28941 | 93 ft | 36 kts | 232° |
| 2026-04-30 17:59 | 43.53231 | 16.28603 | 87 ft | 0 kts | 52° |
| 2026-04-30 18:00 | 43.53466 | 16.29025 | 89 ft | 95 kts | 52° |
| 2026-04-30 18:00 | 43.55417 | 16.32658 | 2154 ft | 169 kts | 59° |
| 2026-04-30 18:01 | 43.55566 | 16.36012 | 3416 ft | 217 kts | 121° |
| 2026-04-30 18:02 | 43.51255 | 16.38421 | 5255 ft | 214 kts | 152° |
| 2026-04-30 18:02 | 43.47222 | 16.40841 | 7556 ft | 225 kts | 171° |
| 2026-04-30 18:03 | 43.43252 | 16.37075 | 8987 ft | 272 kts | 235° |
| 2026-04-30 18:04 | 43.39516 | 16.30369 | 10826 ft | 312 kts | 236° |
| 2026-04-30 18:05 | 43.36966 | 16.19058 | 13360 ft | 327 kts | 295° |
| 2026-04-30 18:06 | 43.43328 | 16.10157 | 16291 ft | 335 kts | 321° |
| 2026-04-30 18:07 | 43.50747 | 16.01915 | 18929 ft | 349 kts | 321° |
| 2026-04-30 18:08 | 43.56473 | 15.95608 | 20683 ft | 357 kts | 321° |
| 2026-04-30 18:09 | 43.64342 | 15.86917 | 22918 ft | 367 kts | 320° |
| 2026-04-30 18:10 | 43.72426 | 15.77960 | 24834 ft | 377 kts | 320° |
| 2026-04-30 18:11 | 43.80701 | 15.68756 | 26528 ft | 386 kts | 320° |
| 2026-04-30 18:11 | 43.87043 | 15.61679 | 27709 ft | 393 kts | 320° |
| 2026-04-30 18:12 | 43.93491 | 15.54464 | 28819 ft | 400 kts | 320° |
| 2026-04-30 18:13 | 43.97856 | 15.49567 | 29522 ft | 405 kts | 320° |
| 2026-04-30 18:13 | 44.03736 | 15.42957 | 30401 ft | 411 kts | 320° |
| 2026-04-30 18:14 | 44.08933 | 15.37091 | 31040 ft | 416 kts | 319° |
| 2026-04-30 18:15 | 44.14609 | 15.27885 | 31887 ft | 419 kts | 310° |
| 2026-04-30 18:15 | 44.20181 | 15.18501 | 32981 ft | 418 kts | 310° |
| 2026-04-30 18:16 | 44.23872 | 15.12262 | 33663 ft | 417 kts | 310° |
| 2026-04-30 18:16 | 44.27558 | 15.06020 | 34245 ft | 417 kts | 310° |
| 2026-04-30 18:17 | 44.31211 | 14.99818 | 34256 ft | 415 kts | 310° |
| 2026-04-30 18:18 | 44.36710 | 14.90458 | 34256 ft | 416 kts | 310° |
| 2026-04-30 18:18 | 44.40379 | 14.84197 | 34255 ft | 416 kts | 310° |
| 2026-04-30 18:19 | 44.44049 | 14.77919 | 34257 ft | 417 kts | 310° |
| 2026-04-30 18:19 | 44.47718 | 14.71629 | 34263 ft | 417 kts | 310° |
| 2026-04-30 18:20 | 44.51368 | 14.65360 | 34254 ft | 418 kts | 310° |
| 2026-04-30 18:20 | 44.55043 | 14.59032 | 34253 ft | 418 kts | 310° |
| 2026-04-30 18:21 | 44.58714 | 14.52696 | 34258 ft | 419 kts | 310° |
| 2026-04-30 18:21 | 44.62393 | 14.46334 | 34260 ft | 419 kts | 311° |
| 2026-04-30 18:22 | 44.66063 | 14.39972 | 34264 ft | 419 kts | 311° |
| 2026-04-30 18:22 | 44.71576 | 14.30391 | 34261 ft | 419 kts | 311° |
| 2026-04-30 18:23 | 44.75219 | 14.24041 | 34266 ft | 419 kts | 311° |
| 2026-04-30 18:23 | 44.78880 | 14.17646 | 34266 ft | 419 kts | 311° |
| 2026-04-30 18:24 | 44.84361 | 14.08044 | 34263 ft | 419 kts | 311° |
| 2026-04-30 18:25 | 44.88013 | 14.01628 | 34263 ft | 419 kts | 311° |
| 2026-04-30 18:25 | 44.93458 | 13.92034 | 34264 ft | 419 kts | 311° |
| 2026-04-30 18:26 | 44.98923 | 13.82374 | 34265 ft | 419 kts | 311° |
| 2026-04-30 18:27 | 45.03785 | 13.73752 | 34270 ft | 419 kts | 311° |
| 2026-04-30 18:28 | 45.09206 | 13.64108 | 34274 ft | 419 kts | 312° |
| 2026-04-30 18:28 | 45.14640 | 13.54408 | 34279 ft | 419 kts | 312° |
| 2026-04-30 18:29 | 45.21870 | 13.41453 | 34282 ft | 419 kts | 312° |
| 2026-04-30 18:30 | 45.29084 | 13.28473 | 34280 ft | 418 kts | 312° |
| 2026-04-30 18:31 | 45.34740 | 13.19077 | 34284 ft | 417 kts | 315° |
| 2026-04-30 18:32 | 45.40237 | 13.09519 | 34288 ft | 420 kts | 310° |
| 2026-04-30 18:33 | 45.45412 | 12.99455 | 34284 ft | 420 kts | 310° |
| 2026-04-30 18:33 | 45.50614 | 12.89398 | 34279 ft | 420 kts | 310° |
| 2026-04-30 18:34 | 45.55813 | 12.79316 | 34275 ft | 421 kts | 310° |
| 2026-04-30 18:35 | 45.59274 | 12.72583 | 34278 ft | 421 kts | 310° |
| 2026-04-30 18:35 | 45.62729 | 12.65846 | 34278 ft | 420 kts | 310° |
| 2026-04-30 18:36 | 45.67880 | 12.55774 | 34278 ft | 420 kts | 311° |
| 2026-04-30 18:37 | 45.73046 | 12.45635 | 34291 ft | 420 kts | 311° |
| 2026-04-30 18:37 | 45.76485 | 12.38866 | 34287 ft | 420 kts | 311° |
| 2026-04-30 18:38 | 45.79918 | 12.32092 | 34289 ft | 420 kts | 311° |
| 2026-04-30 18:38 | 45.83350 | 12.25305 | 34287 ft | 420 kts | 311° |
| 2026-04-30 18:39 | 45.86757 | 12.18549 | 34291 ft | 420 kts | 311° |
| 2026-04-30 18:39 | 45.90180 | 12.11747 | 34289 ft | 420 kts | 311° |
| 2026-04-30 18:40 | 45.93599 | 12.04935 | 34289 ft | 421 kts | 311° |
| 2026-04-30 18:40 | 45.97023 | 11.98097 | 34298 ft | 421 kts | 311° |
| 2026-04-30 18:41 | 46.00437 | 11.91263 | 34308 ft | 421 kts | 311° |
| 2026-04-30 18:41 | 46.03853 | 11.84407 | 34295 ft | 421 kts | 311° |
| 2026-04-30 18:42 | 46.07263 | 11.77547 | 34278 ft | 421 kts | 311° |
| 2026-04-30 18:42 | 46.12373 | 11.67238 | 34277 ft | 421 kts | 311° |
| 2026-04-30 18:45 | 46.31051 | 11.29223 | 34302 ft | 425 kts | 311° |